sensor_id;sensor_type;location;lat;lon;timestamp;P1;durP1;ratioP1;P2;durP2;ratioP2
43511;SDS011;34054;52.100;5.116;2022-10-14T00:00:17;21.95;;;18.52;;
43511;SDS011;34054;52.100;5.116;2022-10-14T00:00:51;37.60;;;20.00;;
43511;SDS011;34054;52.100;5.116;2022-10-14T00:01:22;43.63;;;20.58;;
43511;SDS011;34054;52.100;5.116;2022-10-14T00:01:55;25.08;;;19.10;;
43511;SDS011;34054;52.100;5.116;2022-10-14T00:02:27;30.08;;;18.45;;
43511;SDS011;34054;52.100;5.116;2022-10-14T00:02:59;38.58;;;21.55;;
43511;SDS011;34054;52.100;5.116;2022-10-14T00:03:30;23.13;;;17.73;;
43511;SDS011;34054;52.100;5.116;2022-10-14T00:04:02;20.67;;;18.48;;
43511;SDS011;34054;52.100;5.116;2022-10-14T00:04:35;24.42;;;19.02;;
43511;SDS011;34054;52.100;5.116;2022-10-14T00:05:07;24.98;;;18.33;;
43511;SDS011;34054;52.100;5.116;2022-10-14T00:05:40;28.27;;;20.83;;
43511;SDS011;34054;52.100;5.116;2022-10-14T00:06:13;32.63;;;21.25;;
43511;SDS011;34054;52.100;5.116;2022-10-14T00:06:48;22.77;;;19.35;;
43511;SDS011;34054;52.100;5.116;2022-10-14T00:07:19;20.05;;;17.67;;
43511;SDS011;34054;52.100;5.116;2022-10-14T00:07:51;25.80;;;17.63;;
43511;SDS011;34054;52.100;5.116;2022-10-14T00:08:22;41.75;;;17.77;;
43511;SDS011;34054;52.100;5.116;2022-10-14T00:08:58;40.13;;;19.35;;
43511;SDS011;34054;52.100;5.116;2022-10-14T00:09:31;28.05;;;18.20;;
43511;SDS011;34054;52.100;5.116;2022-10-14T00:10:03;30.30;;;20.00;;
43511;SDS011;34054;52.100;5.116;2022-10-14T00:10:39;20.50;;;18.35;;
43511;SDS011;34054;52.100;5.116;2022-10-14T00:11:11;23.63;;;16.60;;
43511;SDS011;34054;52.100;5.116;2022-10-14T00:11:45;38.38;;;18.63;;
43511;SDS011;34054;52.100;5.116;2022-10-14T00:12:18;25.80;;;19.90;;
43511;SDS011;34054;52.100;5.116;2022-10-14T00:12:50;24.02;;;19.13;;
43511;SDS011;34054;52.100;5.116;2022-10-14T00:13:22;31.70;;;21.13;;
43511;SDS011;34054;52.100;5.116;2022-10-14T00:13:54;22.52;;;17.48;;
43511;SDS011;34054;52.100;5.116;2022-10-14T00:14:28;29.90;;;22.75;;
43511;SDS011;34054;52.100;5.116;2022-10-14T00:15:01;25.98;;;19.67;;
43511;SDS011;34054;52.100;5.116;2022-10-14T00:15:37;20.20;;;17.55;;
43511;SDS011;34054;52.100;5.116;2022-10-14T00:16:14;25.10;;;16.85;;
43511;SDS011;34054;52.100;5.116;2022-10-14T00:16:51;18.52;;;15.48;;
43511;SDS011;34054;52.100;5.116;2022-10-14T00:17:24;31.95;;;17.92;;
43511;SDS011;34054;52.100;5.116;2022-10-14T00:17:56;28.77;;;19.85;;
43511;SDS011;34054;52.100;5.116;2022-10-14T00:18:29;24.73;;;20.70;;
43511;SDS011;34054;52.100;5.116;2022-10-14T00:19:01;19.45;;;17.55;;
43511;SDS011;34054;52.100;5.116;2022-10-14T00:19:35;30.08;;;19.33;;
43511;SDS011;34054;52.100;5.116;2022-10-14T00:20:07;43.05;;;21.52;;
43511;SDS011;34054;52.100;5.116;2022-10-14T00:20:40;25.02;;;18.35;;
43511;SDS011;34054;52.100;5.116;2022-10-14T00:21:12;36.78;;;19.63;;
43511;SDS011;34054;52.100;5.116;2022-10-14T00:21:45;28.65;;;19.33;;
43511;SDS011;34054;52.100;5.116;2022-10-14T00:22:17;25.17;;;19.45;;
43511;SDS011;34054;52.100;5.116;2022-10-14T00:22:49;23.50;;;17.75;;
43511;SDS011;34054;52.100;5.116;2022-10-14T00:23:21;21.60;;;18.63;;
43511;SDS011;34054;52.100;5.116;2022-10-14T00:23:52;22.42;;;14.98;;
43511;SDS011;34054;52.100;5.116;2022-10-14T00:24:25;20.33;;;17.60;;
43511;SDS011;34054;52.100;5.116;2022-10-14T00:24:57;17.98;;;16.02;;
43511;SDS011;34054;52.100;5.116;2022-10-14T00:25:28;21.13;;;18.60;;
43511;SDS011;34054;52.100;5.116;2022-10-14T00:26:02;35.40;;;15.32;;
43511;SDS011;34054;52.100;5.116;2022-10-14T00:26:34;21.02;;;15.60;;
43511;SDS011;34054;52.100;5.116;2022-10-14T00:27:08;27.65;;;16.20;;
43511;SDS011;34054;52.100;5.116;2022-10-14T00:27:41;19.45;;;15.13;;
43511;SDS011;34054;52.100;5.116;2022-10-14T00:28:12;17.70;;;13.77;;
43511;SDS011;34054;52.100;5.116;2022-10-14T00:28:44;18.08;;;15.90;;
43511;SDS011;34054;52.100;5.116;2022-10-14T00:29:17;22.40;;;18.15;;
43511;SDS011;34054;52.100;5.116;2022-10-14T00:29:49;20.92;;;16.50;;
43511;SDS011;34054;52.100;5.116;2022-10-14T00:30:20;18.08;;;13.20;;
43511;SDS011;34054;52.100;5.116;2022-10-14T00:30:54;16.10;;;14.18;;
43511;SDS011;34054;52.100;5.116;2022-10-14T00:31:27;21.30;;;17.58;;
43511;SDS011;34054;52.100;5.116;2022-10-14T00:31:59;29.63;;;15.52;;
43511;SDS011;34054;52.100;5.116;2022-10-14T00:32:31;17.20;;;14.80;;
43511;SDS011;34054;52.100;5.116;2022-10-14T00:33:03;22.60;;;13.90;;
43511;SDS011;34054;52.100;5.116;2022-10-14T00:33:35;19.15;;;12.60;;
43511;SDS011;34054;52.100;5.116;2022-10-14T00:34:07;24.48;;;12.88;;
43511;SDS011;34054;52.100;5.116;2022-10-14T00:34:42;28.23;;;14.18;;
43511;SDS011;34054;52.100;5.116;2022-10-14T00:35:14;24.67;;;12.73;;
43511;SDS011;34054;52.100;5.116;2022-10-14T00:35:52;17.60;;;12.80;;
43511;SDS011;34054;52.100;5.116;2022-10-14T00:36:25;19.33;;;16.40;;
43511;SDS011;34054;52.100;5.116;2022-10-14T00:36:57;33.15;;;15.18;;
43511;SDS011;34054;52.100;5.116;2022-10-14T00:37:30;32.28;;;15.02;;
43511;SDS011;34054;52.100;5.116;2022-10-14T00:38:01;19.58;;;14.90;;
43511;SDS011;34054;52.100;5.116;2022-10-14T00:38:33;19.23;;;13.25;;
43511;SDS011;34054;52.100;5.116;2022-10-14T00:39:05;15.80;;;12.85;;
43511;SDS011;34054;52.100;5.116;2022-10-14T00:39:38;19.98;;;14.02;;
43511;SDS011;34054;52.100;5.116;2022-10-14T00:40:11;20.92;;;15.55;;
43511;SDS011;34054;52.100;5.116;2022-10-14T00:40:43;16.17;;;14.25;;
43511;SDS011;34054;52.100;5.116;2022-10-14T00:41:17;19.75;;;12.50;;
43511;SDS011;34054;52.100;5.116;2022-10-14T00:41:51;19.08;;;14.27;;
43511;SDS011;34054;52.100;5.116;2022-10-14T00:42:24;24.23;;;13.98;;
43511;SDS011;34054;52.100;5.116;2022-10-14T00:42:56;16.40;;;13.98;;
43511;SDS011;34054;52.100;5.116;2022-10-14T00:43:28;20.05;;;15.38;;
43511;SDS011;34054;52.100;5.116;2022-10-14T00:44:01;24.33;;;18.77;;
43511;SDS011;34054;52.100;5.116;2022-10-14T00:45:43;41.92;;;17.48;;
43511;SDS011;34054;52.100;5.116;2022-10-14T00:46:15;27.45;;;18.92;;
43511;SDS011;34054;52.100;5.116;2022-10-14T00:46:48;32.75;;;20.77;;
43511;SDS011;34054;52.100;5.116;2022-10-14T00:47:21;22.70;;;17.55;;
43511;SDS011;34054;52.100;5.116;2022-10-14T00:47:53;24.50;;;20.25;;
43511;SDS011;34054;52.100;5.116;2022-10-14T00:48:26;48.22;;;18.80;;
43511;SDS011;34054;52.100;5.116;2022-10-14T00:48:58;21.65;;;15.88;;
43511;SDS011;34054;52.100;5.116;2022-10-14T00:49:36;20.73;;;16.08;;
43511;SDS011;34054;52.100;5.116;2022-10-14T00:50:13;26.70;;;16.98;;
43511;SDS011;34054;52.100;5.116;2022-10-14T00:50:47;19.55;;;16.88;;
43511;SDS011;34054;52.100;5.116;2022-10-14T00:51:24;24.83;;;16.45;;
43511;SDS011;34054;52.100;5.116;2022-10-14T00:51:57;20.70;;;16.00;;
43511;SDS011;34054;52.100;5.116;2022-10-14T00:52:34;27.42;;;18.75;;
43511;SDS011;34054;52.100;5.116;2022-10-14T00:53:05;28.00;;;16.02;;
43511;SDS011;34054;52.100;5.116;2022-10-14T00:53:38;15.88;;;13.40;;
43511;SDS011;34054;52.100;5.116;2022-10-14T00:54:14;38.88;;;20.08;;
43511;SDS011;34054;52.100;5.116;2022-10-14T00:54:52;19.52;;;13.30;;
43511;SDS011;34054;52.100;5.116;2022-10-14T00:55:29;16.65;;;13.85;;
43511;SDS011;34054;52.100;5.116;2022-10-14T00:56:01;22.20;;;16.95;;
43511;SDS011;34054;52.100;5.116;2022-10-14T00:56:35;19.40;;;15.90;;
43511;SDS011;34054;52.100;5.116;2022-10-14T00:57:08;24.02;;;13.23;;
43511;SDS011;34054;52.100;5.116;2022-10-14T00:57:41;26.92;;;14.77;;
43511;SDS011;34054;52.100;5.116;2022-10-14T00:58:14;19.10;;;17.10;;
43511;SDS011;34054;52.100;5.116;2022-10-14T00:58:46;16.77;;;14.60;;
43511;SDS011;34054;52.100;5.116;2022-10-14T00:59:18;16.38;;;14.65;;
43511;SDS011;34054;52.100;5.116;2022-10-14T00:59:50;19.75;;;16.90;;
43511;SDS011;34054;52.100;5.116;2022-10-14T01:00:29;18.95;;;13.32;;
43511;SDS011;34054;52.100;5.116;2022-10-14T01:01:01;16.60;;;14.20;;
43511;SDS011;34054;52.100;5.116;2022-10-14T01:01:32;15.02;;;12.95;;
43511;SDS011;34054;52.100;5.116;2022-10-14T01:02:05;23.10;;;15.70;;
43511;SDS011;34054;52.100;5.116;2022-10-14T01:02:37;15.65;;;13.73;;
43511;SDS011;34054;52.100;5.116;2022-10-14T01:03:09;20.52;;;17.80;;
43511;SDS011;34054;52.100;5.116;2022-10-14T01:03:51;23.45;;;16.13;;
43511;SDS011;34054;52.100;5.116;2022-10-14T01:04:23;17.48;;;13.30;;
43511;SDS011;34054;52.100;5.116;2022-10-14T01:04:56;15.52;;;13.35;;
43511;SDS011;34054;52.100;5.116;2022-10-14T01:05:30;21.70;;;15.65;;
43511;SDS011;34054;52.100;5.116;2022-10-14T01:06:13;17.50;;;14.23;;
43511;SDS011;34054;52.100;5.116;2022-10-14T01:07:02;20.00;;;15.38;;
43511;SDS011;34054;52.100;5.116;2022-10-14T01:07:47;23.27;;;17.40;;
43511;SDS011;34054;52.100;5.116;2022-10-14T01:08:30;20.00;;;16.88;;
43511;SDS011;34054;52.100;5.116;2022-10-14T01:09:17;21.23;;;14.82;;
43511;SDS011;34054;52.100;5.116;2022-10-14T01:10:02;18.75;;;16.05;;
43511;SDS011;34054;52.100;5.116;2022-10-14T01:10:42;24.30;;;18.25;;
43511;SDS011;34054;52.100;5.116;2022-10-14T01:11:28;22.13;;;16.85;;
43511;SDS011;34054;52.100;5.116;2022-10-14T01:12:12;19.27;;;17.13;;
43511;SDS011;34054;52.100;5.116;2022-10-14T01:13:03;28.88;;;18.75;;
43511;SDS011;34054;52.100;5.116;2022-10-14T01:13:49;34.05;;;16.17;;
43511;SDS011;34054;52.100;5.116;2022-10-14T01:14:37;18.05;;;16.10;;
43511;SDS011;34054;52.100;5.116;2022-10-14T01:15:32;25.35;;;18.23;;
43511;SDS011;34054;52.100;5.116;2022-10-14T01:16:13;19.92;;;17.63;;
43511;SDS011;34054;52.100;5.116;2022-10-14T01:16:53;21.20;;;17.55;;
43511;SDS011;34054;52.100;5.116;2022-10-14T01:17:37;18.38;;;16.58;;
43511;SDS011;34054;52.100;5.116;2022-10-14T01:18:27;18.33;;;15.63;;
43511;SDS011;34054;52.100;5.116;2022-10-14T01:19:33;18.85;;;15.68;;
43511;SDS011;34054;52.100;5.116;2022-10-14T01:20:40;20.15;;;16.05;;
43511;SDS011;34054;52.100;5.116;2022-10-14T01:21:28;20.13;;;15.77;;
43511;SDS011;34054;52.100;5.116;2022-10-14T01:22:10;20.38;;;14.13;;
43511;SDS011;34054;52.100;5.116;2022-10-14T01:22:55;22.40;;;17.85;;
43511;SDS011;34054;52.100;5.116;2022-10-14T01:25:13;15.57;;;14.02;;
43511;SDS011;34054;52.100;5.116;2022-10-14T01:26:00;18.92;;;16.10;;
43511;SDS011;34054;52.100;5.116;2022-10-14T01:27:04;18.95;;;15.88;;
43511;SDS011;34054;52.100;5.116;2022-10-14T01:27:53;22.02;;;17.13;;
43511;SDS011;34054;52.100;5.116;2022-10-14T01:28:40;19.75;;;16.65;;
43511;SDS011;34054;52.100;5.116;2022-10-14T01:29:37;17.65;;;15.95;;
43511;SDS011;34054;52.100;5.116;2022-10-14T01:30:33;27.70;;;18.05;;
43511;SDS011;34054;52.100;5.116;2022-10-14T01:31:52;19.45;;;16.75;;
43511;SDS011;34054;52.100;5.116;2022-10-14T01:32:35;22.10;;;18.70;;
43511;SDS011;34054;52.100;5.116;2022-10-14T01:33:28;18.63;;;16.30;;
43511;SDS011;34054;52.100;5.116;2022-10-14T01:34:08;19.00;;;15.80;;
43511;SDS011;34054;52.100;5.116;2022-10-14T01:34:43;20.98;;;17.95;;
43511;SDS011;34054;52.100;5.116;2022-10-14T01:35:28;19.10;;;16.92;;
43511;SDS011;34054;52.100;5.116;2022-10-14T01:36:14;20.15;;;17.88;;
43511;SDS011;34054;52.100;5.116;2022-10-14T01:36:55;21.80;;;19.60;;
43511;SDS011;34054;52.100;5.116;2022-10-14T01:37:36;20.27;;;18.10;;
43511;SDS011;34054;52.100;5.116;2022-10-14T01:38:17;25.80;;;17.98;;
43511;SDS011;34054;52.100;5.116;2022-10-14T01:38:56;18.25;;;15.85;;
43511;SDS011;34054;52.100;5.116;2022-10-14T01:39:36;23.60;;;18.15;;
43511;SDS011;34054;52.100;5.116;2022-10-14T01:40:21;21.98;;;17.70;;
43511;SDS011;34054;52.100;5.116;2022-10-14T01:40:59;23.02;;;18.17;;
43511;SDS011;34054;52.100;5.116;2022-10-14T01:41:41;22.73;;;19.73;;
43511;SDS011;34054;52.100;5.116;2022-10-14T01:42:20;20.20;;;16.67;;
43511;SDS011;34054;52.100;5.116;2022-10-14T01:42:57;19.70;;;17.60;;
43511;SDS011;34054;52.100;5.116;2022-10-14T01:43:34;21.25;;;19.05;;
43511;SDS011;34054;52.100;5.116;2022-10-14T01:44:10;22.85;;;18.33;;
43511;SDS011;34054;52.100;5.116;2022-10-14T01:44:47;19.95;;;16.63;;
43511;SDS011;34054;52.100;5.116;2022-10-14T01:45:27;24.85;;;18.92;;
43511;SDS011;34054;52.100;5.116;2022-10-14T01:46:04;23.92;;;18.60;;
43511;SDS011;34054;52.100;5.116;2022-10-14T01:46:39;22.50;;;18.70;;
43511;SDS011;34054;52.100;5.116;2022-10-14T01:47:18;22.98;;;18.50;;
43511;SDS011;34054;52.100;5.116;2022-10-14T01:47:51;24.23;;;19.98;;
43511;SDS011;34054;52.100;5.116;2022-10-14T01:48:26;21.45;;;18.75;;
43511;SDS011;34054;52.100;5.116;2022-10-14T01:49:04;23.20;;;20.75;;
43511;SDS011;34054;52.100;5.116;2022-10-14T01:49:43;23.92;;;18.80;;
43511;SDS011;34054;52.100;5.116;2022-10-14T01:50:20;22.55;;;16.63;;
43511;SDS011;34054;52.100;5.116;2022-10-14T01:50:59;21.70;;;17.80;;
43511;SDS011;34054;52.100;5.116;2022-10-14T01:51:38;22.80;;;19.88;;
43511;SDS011;34054;52.100;5.116;2022-10-14T01:52:17;25.33;;;18.90;;
43511;SDS011;34054;52.100;5.116;2022-10-14T01:53:34;23.58;;;18.45;;
43511;SDS011;34054;52.100;5.116;2022-10-14T01:54:11;22.33;;;19.92;;
43511;SDS011;34054;52.100;5.116;2022-10-14T01:54:50;24.98;;;18.13;;
43511;SDS011;34054;52.100;5.116;2022-10-14T01:55:27;20.98;;;18.30;;
43511;SDS011;34054;52.100;5.116;2022-10-14T01:56:05;21.10;;;18.52;;
43511;SDS011;34054;52.100;5.116;2022-10-14T01:56:40;21.13;;;18.90;;
43511;SDS011;34054;52.100;5.116;2022-10-14T01:57:18;25.42;;;19.20;;
43511;SDS011;34054;52.100;5.116;2022-10-14T01:57:56;23.27;;;20.50;;
43511;SDS011;34054;52.100;5.116;2022-10-14T01:58:30;21.85;;;16.48;;
43511;SDS011;34054;52.100;5.116;2022-10-14T01:59:05;35.47;;;19.92;;
43511;SDS011;34054;52.100;5.116;2022-10-14T01:59:41;29.00;;;20.33;;
43511;SDS011;34054;52.100;5.116;2022-10-14T02:00:18;21.35;;;17.35;;
43511;SDS011;34054;52.100;5.116;2022-10-14T02:00:51;21.73;;;17.13;;
43511;SDS011;34054;52.100;5.116;2022-10-14T02:01:23;24.77;;;20.38;;
43511;SDS011;34054;52.100;5.116;2022-10-14T02:01:54;23.25;;;18.83;;
43511;SDS011;34054;52.100;5.116;2022-10-14T02:02:27;24.67;;;20.40;;
43511;SDS011;34054;52.100;5.116;2022-10-14T02:02:58;23.00;;;18.02;;
43511;SDS011;34054;52.100;5.116;2022-10-14T02:03:37;26.77;;;20.52;;
43511;SDS011;34054;52.100;5.116;2022-10-14T02:04:13;25.70;;;18.30;;
43511;SDS011;34054;52.100;5.116;2022-10-14T02:04:46;21.70;;;18.45;;
43511;SDS011;34054;52.100;5.116;2022-10-14T02:05:19;25.33;;;20.55;;
43511;SDS011;34054;52.100;5.116;2022-10-14T02:06:00;31.50;;;21.20;;
43511;SDS011;34054;52.100;5.116;2022-10-14T02:06:36;22.48;;;17.10;;
43511;SDS011;34054;52.100;5.116;2022-10-14T02:07:14;29.75;;;22.88;;
43511;SDS011;34054;52.100;5.116;2022-10-14T02:07:56;27.55;;;22.20;;
43511;SDS011;34054;52.100;5.116;2022-10-14T02:08:43;26.77;;;23.23;;
43511;SDS011;34054;52.100;5.116;2022-10-14T02:09:35;29.73;;;20.95;;
43511;SDS011;34054;52.100;5.116;2022-10-14T02:10:20;32.28;;;20.90;;
43511;SDS011;34054;52.100;5.116;2022-10-14T02:11:17;28.58;;;20.50;;
43511;SDS011;34054;52.100;5.116;2022-10-14T02:11:55;28.35;;;21.73;;
43511;SDS011;34054;52.100;5.116;2022-10-14T02:12:43;25.70;;;21.48;;
43511;SDS011;34054;52.100;5.116;2022-10-14T02:13:34;27.50;;;21.45;;
43511;SDS011;34054;52.100;5.116;2022-10-14T02:14:23;26.77;;;19.35;;
43511;SDS011;34054;52.100;5.116;2022-10-14T02:15:07;21.83;;;19.33;;
43511;SDS011;34054;52.100;5.116;2022-10-14T02:15:52;29.55;;;23.13;;
43511;SDS011;34054;52.100;5.116;2022-10-14T02:16:36;24.10;;;18.30;;
43511;SDS011;34054;52.100;5.116;2022-10-14T02:17:16;27.13;;;21.27;;
43511;SDS011;34054;52.100;5.116;2022-10-14T02:17:59;21.63;;;17.98;;
43511;SDS011;34054;52.100;5.116;2022-10-14T02:18:43;21.55;;;18.08;;
43511;SDS011;34054;52.100;5.116;2022-10-14T02:19:26;24.85;;;20.35;;
43511;SDS011;34054;52.100;5.116;2022-10-14T02:20:07;25.50;;;19.08;;
43511;SDS011;34054;52.100;5.116;2022-10-14T02:20:56;24.88;;;19.50;;
43511;SDS011;34054;52.100;5.116;2022-10-14T02:21:38;21.65;;;19.05;;
43511;SDS011;34054;52.100;5.116;2022-10-14T02:22:19;28.42;;;20.17;;
43511;SDS011;34054;52.100;5.116;2022-10-14T02:23:02;28.90;;;21.80;;
43511;SDS011;34054;52.100;5.116;2022-10-14T02:23:43;34.78;;;20.73;;
43511;SDS011;34054;52.100;5.116;2022-10-14T02:24:20;28.92;;;24.27;;
43511;SDS011;34054;52.100;5.116;2022-10-14T02:24:57;25.42;;;21.40;;
43511;SDS011;34054;52.100;5.116;2022-10-14T02:25:39;29.70;;;19.48;;
43511;SDS011;34054;52.100;5.116;2022-10-14T02:26:15;22.77;;;20.45;;
43511;SDS011;34054;52.100;5.116;2022-10-14T02:26:49;21.83;;;19.02;;
43511;SDS011;34054;52.100;5.116;2022-10-14T02:27:25;29.80;;;21.13;;
43511;SDS011;34054;52.100;5.116;2022-10-14T02:28:02;29.10;;;21.42;;
43511;SDS011;34054;52.100;5.116;2022-10-14T02:28:37;23.65;;;20.23;;
43511;SDS011;34054;52.100;5.116;2022-10-14T02:29:13;22.85;;;19.10;;
43511;SDS011;34054;52.100;5.116;2022-10-14T02:29:48;21.13;;;19.05;;
43511;SDS011;34054;52.100;5.116;2022-10-14T02:30:24;32.30;;;21.98;;
43511;SDS011;34054;52.100;5.116;2022-10-14T02:31:03;34.17;;;19.80;;
43511;SDS011;34054;52.100;5.116;2022-10-14T02:31:40;28.10;;;21.35;;
43511;SDS011;34054;52.100;5.116;2022-10-14T02:32:16;32.42;;;19.33;;
43511;SDS011;34054;52.100;5.116;2022-10-14T02:32:53;31.25;;;23.83;;
43511;SDS011;34054;52.100;5.116;2022-10-14T02:33:30;30.65;;;20.00;;
43511;SDS011;34054;52.100;5.116;2022-10-14T02:34:08;26.73;;;23.38;;
43511;SDS011;34054;52.100;5.116;2022-10-14T02:34:45;25.27;;;20.98;;
43511;SDS011;34054;52.100;5.116;2022-10-14T02:35:23;27.48;;;21.60;;
43511;SDS011;34054;52.100;5.116;2022-10-14T02:35:55;26.08;;;21.05;;
43511;SDS011;34054;52.100;5.116;2022-10-14T02:36:27;32.97;;;23.55;;
43511;SDS011;34054;52.100;5.116;2022-10-14T02:37:02;36.83;;;21.40;;
43511;SDS011;34054;52.100;5.116;2022-10-14T02:37:35;25.33;;;20.17;;
43511;SDS011;34054;52.100;5.116;2022-10-14T02:38:09;25.38;;;21.85;;
43511;SDS011;34054;52.100;5.116;2022-10-14T02:38:41;23.08;;;19.85;;
43511;SDS011;34054;52.100;5.116;2022-10-14T02:39:16;23.35;;;21.08;;
43511;SDS011;34054;52.100;5.116;2022-10-14T02:39:56;30.80;;;22.30;;
43511;SDS011;34054;52.100;5.116;2022-10-14T02:40:38;23.10;;;20.75;;
43511;SDS011;34054;52.100;5.116;2022-10-14T02:41:14;28.55;;;21.80;;
43511;SDS011;34054;52.100;5.116;2022-10-14T02:41:50;32.95;;;23.20;;
43511;SDS011;34054;52.100;5.116;2022-10-14T02:42:23;25.92;;;23.15;;
43511;SDS011;34054;52.100;5.116;2022-10-14T02:42:56;29.38;;;22.13;;
43511;SDS011;34054;52.100;5.116;2022-10-14T02:43:27;34.03;;;22.48;;
43511;SDS011;34054;52.100;5.116;2022-10-14T02:44:00;26.08;;;21.40;;
43511;SDS011;34054;52.100;5.116;2022-10-14T02:44:34;25.77;;;22.05;;
43511;SDS011;34054;52.100;5.116;2022-10-14T02:45:06;38.58;;;21.98;;
43511;SDS011;34054;52.100;5.116;2022-10-14T02:45:42;26.60;;;23.10;;
43511;SDS011;34054;52.100;5.116;2022-10-14T02:46:18;37.42;;;23.85;;
43511;SDS011;34054;52.100;5.116;2022-10-14T02:46:53;27.40;;;22.73;;
43511;SDS011;34054;52.100;5.116;2022-10-14T02:47:26;59.47;;;23.58;;
43511;SDS011;34054;52.100;5.116;2022-10-14T02:47:59;25.63;;;20.60;;
43511;SDS011;34054;52.100;5.116;2022-10-14T02:48:30;24.10;;;21.17;;
43511;SDS011;34054;52.100;5.116;2022-10-14T02:49:03;38.72;;;25.40;;
43511;SDS011;34054;52.100;5.116;2022-10-14T02:49:35;27.13;;;21.27;;
43511;SDS011;34054;52.100;5.116;2022-10-14T02:50:07;32.00;;;21.92;;
43511;SDS011;34054;52.100;5.116;2022-10-14T02:50:40;37.75;;;23.02;;
43511;SDS011;34054;52.100;5.116;2022-10-14T02:51:12;31.85;;;21.50;;
43511;SDS011;34054;52.100;5.116;2022-10-14T02:51:44;24.83;;;20.70;;
43511;SDS011;34054;52.100;5.116;2022-10-14T02:52:17;47.13;;;25.95;;
43511;SDS011;34054;52.100;5.116;2022-10-14T02:52:49;28.50;;;24.58;;
43511;SDS011;34054;52.100;5.116;2022-10-14T02:53:21;29.73;;;22.83;;
43511;SDS011;34054;52.100;5.116;2022-10-14T02:53:53;26.27;;;22.20;;
43511;SDS011;34054;52.100;5.116;2022-10-14T02:54:27;27.20;;;20.17;;
43511;SDS011;34054;52.100;5.116;2022-10-14T02:55:00;36.38;;;25.48;;
43511;SDS011;34054;52.100;5.116;2022-10-14T02:55:32;28.08;;;24.42;;
43511;SDS011;34054;52.100;5.116;2022-10-14T02:56:03;32.45;;;23.65;;
43511;SDS011;34054;52.100;5.116;2022-10-14T02:56:37;33.08;;;24.02;;
43511;SDS011;34054;52.100;5.116;2022-10-14T02:57:08;37.97;;;27.17;;
43511;SDS011;34054;52.100;5.116;2022-10-14T02:57:41;33.28;;;26.02;;
43511;SDS011;34054;52.100;5.116;2022-10-14T02:58:14;38.03;;;26.50;;
43511;SDS011;34054;52.100;5.116;2022-10-14T02:58:45;35.05;;;25.90;;
43511;SDS011;34054;52.100;5.116;2022-10-14T02:59:17;25.80;;;23.02;;
43511;SDS011;34054;52.100;5.116;2022-10-14T02:59:50;41.47;;;22.92;;
43511;SDS011;34054;52.100;5.116;2022-10-14T03:00:21;47.13;;;27.02;;
43511;SDS011;34054;52.100;5.116;2022-10-14T03:00:53;31.40;;;23.40;;
43511;SDS011;34054;52.100;5.116;2022-10-14T03:01:27;39.00;;;24.42;;
43511;SDS011;34054;52.100;5.116;2022-10-14T03:01:58;37.67;;;25.08;;
43511;SDS011;34054;52.100;5.116;2022-10-14T03:02:30;30.83;;;22.42;;
43511;SDS011;34054;52.100;5.116;2022-10-14T03:03:03;25.13;;;21.92;;
43511;SDS011;34054;52.100;5.116;2022-10-14T03:03:34;30.05;;;24.63;;
43511;SDS011;34054;52.100;5.116;2022-10-14T03:04:06;50.70;;;25.77;;
43511;SDS011;34054;52.100;5.116;2022-10-14T03:04:39;25.30;;;22.48;;
43511;SDS011;34054;52.100;5.116;2022-10-14T03:05:10;31.52;;;23.85;;
43511;SDS011;34054;52.100;5.116;2022-10-14T03:05:42;28.02;;;22.92;;
43511;SDS011;34054;52.100;5.116;2022-10-14T03:06:15;29.48;;;24.38;;
43511;SDS011;34054;52.100;5.116;2022-10-14T03:06:46;38.53;;;21.13;;
43511;SDS011;34054;52.100;5.116;2022-10-14T03:07:18;29.50;;;26.33;;
43511;SDS011;34054;52.100;5.116;2022-10-14T03:07:51;37.45;;;24.13;;
43511;SDS011;34054;52.100;5.116;2022-10-14T03:08:22;29.23;;;23.02;;
43511;SDS011;34054;52.100;5.116;2022-10-14T03:08:54;31.23;;;23.05;;
43511;SDS011;34054;52.100;5.116;2022-10-14T03:09:27;42.58;;;22.40;;
43511;SDS011;34054;52.100;5.116;2022-10-14T03:09:58;33.67;;;22.13;;
43511;SDS011;34054;52.100;5.116;2022-10-14T03:10:30;27.95;;;23.05;;
43511;SDS011;34054;52.100;5.116;2022-10-14T03:11:02;28.67;;;24.67;;
43511;SDS011;34054;52.100;5.116;2022-10-14T03:11:34;39.80;;;24.33;;
43511;SDS011;34054;52.100;5.116;2022-10-14T03:12:06;46.53;;;24.13;;
43511;SDS011;34054;52.100;5.116;2022-10-14T03:12:39;27.65;;;22.85;;
43511;SDS011;34054;52.100;5.116;2022-10-14T03:13:10;26.55;;;23.05;;
43511;SDS011;34054;52.100;5.116;2022-10-14T03:13:42;37.65;;;27.33;;
43511;SDS011;34054;52.100;5.116;2022-10-14T03:14:15;50.08;;;24.25;;
43511;SDS011;34054;52.100;5.116;2022-10-14T03:14:46;34.17;;;25.73;;
43511;SDS011;34054;52.100;5.116;2022-10-14T03:15:18;28.95;;;21.77;;
43511;SDS011;34054;52.100;5.116;2022-10-14T03:15:49;51.92;;;26.55;;
43511;SDS011;34054;52.100;5.116;2022-10-14T03:16:22;28.42;;;23.92;;
43511;SDS011;34054;52.100;5.116;2022-10-14T03:16:55;34.80;;;24.48;;
43511;SDS011;34054;52.100;5.116;2022-10-14T03:17:27;36.42;;;27.08;;
43511;SDS011;34054;52.100;5.116;2022-10-14T03:18:00;31.73;;;25.35;;
43511;SDS011;34054;52.100;5.116;2022-10-14T03:18:32;34.10;;;25.05;;
43511;SDS011;34054;52.100;5.116;2022-10-14T03:19:03;34.15;;;26.13;;
43511;SDS011;34054;52.100;5.116;2022-10-14T03:19:35;28.48;;;23.00;;
43511;SDS011;34054;52.100;5.116;2022-10-14T03:20:08;28.58;;;21.27;;
43511;SDS011;34054;52.100;5.116;2022-10-14T03:20:41;33.92;;;25.70;;
43511;SDS011;34054;52.100;5.116;2022-10-14T03:21:14;34.55;;;25.05;;
43511;SDS011;34054;52.100;5.116;2022-10-14T03:21:47;32.92;;;25.88;;
43511;SDS011;34054;52.100;5.116;2022-10-14T03:22:18;31.70;;;23.20;;
43511;SDS011;34054;52.100;5.116;2022-10-14T03:22:50;26.02;;;22.92;;
43511;SDS011;34054;52.100;5.116;2022-10-14T03:23:23;32.75;;;24.75;;
43511;SDS011;34054;52.100;5.116;2022-10-14T03:23:55;30.52;;;24.75;;
43511;SDS011;34054;52.100;5.116;2022-10-14T03:24:26;31.05;;;22.48;;
43511;SDS011;34054;52.100;5.116;2022-10-14T03:24:58;34.63;;;24.50;;
43511;SDS011;34054;52.100;5.116;2022-10-14T03:25:31;32.20;;;26.60;;
43511;SDS011;34054;52.100;5.116;2022-10-14T03:26:02;31.40;;;25.35;;
43511;SDS011;34054;52.100;5.116;2022-10-14T03:26:34;35.97;;;24.30;;
43511;SDS011;34054;52.100;5.116;2022-10-14T03:27:06;27.65;;;23.38;;
43511;SDS011;34054;52.100;5.116;2022-10-14T03:27:38;32.17;;;24.83;;
43511;SDS011;34054;52.100;5.116;2022-10-14T03:28:10;33.35;;;26.75;;
43511;SDS011;34054;52.100;5.116;2022-10-14T03:28:43;29.95;;;22.55;;
43511;SDS011;34054;52.100;5.116;2022-10-14T03:29:15;26.92;;;24.00;;
43511;SDS011;34054;52.100;5.116;2022-10-14T03:29:47;35.80;;;25.60;;
43511;SDS011;34054;52.100;5.116;2022-10-14T03:30:20;37.17;;;26.27;;
43511;SDS011;34054;52.100;5.116;2022-10-14T03:30:51;37.80;;;25.50;;
43511;SDS011;34054;52.100;5.116;2022-10-14T03:31:23;32.03;;;21.83;;
43511;SDS011;34054;52.100;5.116;2022-10-14T03:31:57;37.75;;;26.00;;
43511;SDS011;34054;52.100;5.116;2022-10-14T03:32:29;32.42;;;24.35;;
43511;SDS011;34054;52.100;5.116;2022-10-14T03:33:01;31.08;;;24.80;;
43511;SDS011;34054;52.100;5.116;2022-10-14T03:33:33;27.90;;;23.23;;
43511;SDS011;34054;52.100;5.116;2022-10-14T03:34:05;25.58;;;23.02;;